createdAt,value
2022-08-07T00:00:23.339Z,12.13
2022-08-07T00:02:51.250Z,12.05
2022-08-07T00:05:21.069Z,11.99
2022-08-07T00:08:00.060Z,11.95
2022-08-07T00:10:30.955Z,11.90
2022-08-07T00:13:03.220Z,11.83
2022-08-07T00:15:46.192Z,11.77
2022-08-07T00:18:19.429Z,11.69
2022-08-07T00:20:49.731Z,11.67
2022-08-07T00:23:17.364Z,11.62
2022-08-07T00:25:51.805Z,11.58
2022-08-07T00:28:25.893Z,11.59
2022-08-07T00:31:05.734Z,11.59
2022-08-07T00:33:33.958Z,11.56
2022-08-07T00:36:01.205Z,11.57
2022-08-07T00:38:31.265Z,11.58
2022-08-07T00:40:59.691Z,11.53
2022-08-07T00:44:00.755Z,11.53
2022-08-07T00:46:14.258Z,11.43
2022-08-07T00:48:42.047Z,11.36
2022-08-07T00:51:09.621Z,11.32
2022-08-07T00:53:38.857Z,11.27
2022-08-07T00:56:17.218Z,11.22
2022-08-07T00:58:47.134Z,11.15
2022-08-07T01:01:17.891Z,11.22
2022-08-07T01:03:56.150Z,11.13
2022-08-07T01:06:27.602Z,11.09
2022-08-07T01:08:55.551Z,11.03
2022-08-07T01:12:04.462Z,10.96
2022-08-07T01:14:10.379Z,10.91
2022-08-07T01:16:37.785Z,10.95
2022-08-07T01:19:18.366Z,10.93
2022-08-07T01:21:53.418Z,10.95
2022-08-07T01:24:27.473Z,10.85
2022-08-07T01:26:54.563Z,10.82
2022-08-07T01:29:24.181Z,10.75
2022-08-07T01:31:55.301Z,10.76
2022-08-07T01:34:31.154Z,10.81
2022-08-07T01:37:00.730Z,10.83
2022-08-07T01:39:40.591Z,10.74
2022-08-07T01:42:39.284Z,10.60
2022-08-07T01:45:15.777Z,10.61
2022-08-07T01:48:29.726Z,10.52
2022-08-07T01:50:37.734Z,10.48
2022-08-07T01:53:09.586Z,10.49
2022-08-07T01:55:52.305Z,10.37
2022-08-07T01:58:27.538Z,10.30
2022-08-07T02:01:10.117Z,10.28
2022-08-07T02:03:58.071Z,10.21
2022-08-07T02:06:31.326Z,10.28
2022-08-07T02:09:04.786Z,10.23
2022-08-07T02:12:03.854Z,10.19
2022-08-07T02:14:36.381Z,10.13
2022-08-07T02:17:27.404Z,10.15
2022-08-07T02:20:09.289Z,10.12
2022-08-07T02:22:43.852Z,10.09
2022-08-07T02:25:13.729Z,9.98
2022-08-07T02:27:52.194Z,9.90
2022-08-07T02:30:21.214Z,9.85
2022-08-07T02:33:00.565Z,9.84
2022-08-07T02:36:26.896Z,9.89
2022-08-07T02:38:31.865Z,9.92
2022-08-07T02:41:05.120Z,9.84
2022-08-07T02:43:39.455Z,9.82
2022-08-07T02:46:08.497Z,9.86
2022-08-07T02:48:37.750Z,9.77
2022-08-07T02:51:42.009Z,9.74
2022-08-07T02:54:06.818Z,9.65
2022-08-07T02:56:34.422Z,9.65
2022-08-07T02:59:05.828Z,9.71
2022-08-07T03:01:35.751Z,9.65
2022-08-07T03:04:12.647Z,9.61
2022-08-07T03:06:46.170Z,9.56
2022-08-07T03:09:43.928Z,9.67
2022-08-07T03:12:08.120Z,9.72
2022-08-07T03:14:52.127Z,9.61
2022-08-07T03:17:20.100Z,9.72
2022-08-07T03:19:52.872Z,9.55
2022-08-07T03:22:29.622Z,9.45
2022-08-07T03:25:00.685Z,9.38
2022-08-07T03:27:42.179Z,9.47
2022-08-07T03:30:25.733Z,9.43
2022-08-07T03:32:59.154Z,9.35
2022-08-07T03:35:43.907Z,9.28
2022-08-07T03:38:20.909Z,9.25
2022-08-07T03:40:53.853Z,9.24
2022-08-07T03:43:26.799Z,9.19
2022-08-07T03:46:01.477Z,9.24
2022-08-07T03:48:31.709Z,9.11
2022-08-07T03:50:59.909Z,9.07
2022-08-07T03:54:32.767Z,9.14
2022-08-07T03:56:32.560Z,9.08
2022-08-07T03:59:09.749Z,8.99
2022-08-07T04:01:46.321Z,8.99
2022-08-07T04:04:17.884Z,9.00
2022-08-07T04:06:50.913Z,9.01
2022-08-07T04:09:23.331Z,9.03
2022-08-07T04:12:21.428Z,9.10
2022-08-07T04:14:45.970Z,9.03
2022-08-07T04:17:20.499Z,8.98
2022-08-07T04:19:52.572Z,8.98
2022-08-07T04:22:28.824Z,9.00
2022-08-07T04:24:58.131Z,8.95
2022-08-07T04:27:35.438Z,8.92
2022-08-07T04:30:11.772Z,8.90
2022-08-07T04:33:07.433Z,8.86
2022-08-07T04:35:39.141Z,8.85
2022-08-07T04:38:13.089Z,8.86
2022-08-07T04:40:52.567Z,8.89
2022-08-07T04:44:12.389Z,8.97
2022-08-07T04:47:04.545Z,9.01
2022-08-07T04:49:58.079Z,9.00
2022-08-07T04:52:57.371Z,8.99
2022-08-07T04:58:10.640Z,9.07
2022-08-07T04:59:16.935Z,9.09
2022-08-07T05:01:46.855Z,9.12
2022-08-07T05:04:50.242Z,9.17
2022-08-07T05:07:44.189Z,9.19
2022-08-07T05:10:24.735Z,9.29
2022-08-07T05:14:56.349Z,9.37
2022-08-07T05:15:59.935Z,9.43
2022-08-07T05:18:36.609Z,9.45
2022-08-07T05:21:09.693Z,9.50
2022-08-07T05:23:47.942Z,9.57
2022-08-07T05:26:25.972Z,9.64
2022-08-07T05:29:04.104Z,9.72
2022-08-07T05:31:37.773Z,9.81
2022-08-07T05:34:12.206Z,9.92
2022-08-07T05:36:48.992Z,9.98
2022-08-07T05:40:13.567Z,10.08
2022-08-07T05:42:14.488Z,10.19
2022-08-07T05:44:52.788Z,10.25
2022-08-07T05:48:02.094Z,10.36
2022-08-07T05:50:19.373Z,10.50
2022-08-07T05:52:46.527Z,10.61
2022-08-07T05:55:14.890Z,10.67
2022-08-07T05:57:46.455Z,10.77
2022-08-07T06:00:17.709Z,10.87
2022-08-07T06:02:55.932Z,11.00
2022-08-07T06:05:28.417Z,11.16
2022-08-07T06:08:09.062Z,11.23
2022-08-07T06:10:54.702Z,11.37
2022-08-07T06:14:10.489Z,11.51
2022-08-07T06:16:13.356Z,11.63
2022-08-07T06:18:51.597Z,11.75
2022-08-07T06:22:14.940Z,11.90
2022-08-07T06:24:46.283Z,12.09
2022-08-07T06:26:58.906Z,12.19
2022-08-07T06:29:30.557Z,12.35
2022-08-07T06:31:57.227Z,12.51
2022-08-07T06:34:25.539Z,12.66
2022-08-07T06:36:56.814Z,12.82
2022-08-07T06:40:16.977Z,13.07
2022-08-07T06:42:34.783Z,13.38
2022-08-07T06:45:23.570Z,13.50
2022-08-07T06:47:58.601Z,13.62
2022-08-07T06:50:33.490Z,13.78
2022-08-07T06:53:04.597Z,14.00
2022-08-07T06:55:47.895Z,14.09
2022-08-07T06:58:27.461Z,14.42
2022-08-07T07:01:02.955Z,14.70
2022-08-07T07:03:48.104Z,14.94
2022-08-07T07:06:23.835Z,15.31
2022-08-07T07:08:53.740Z,15.47
2022-08-07T07:12:10.703Z,15.71
2022-08-07T07:14:10.247Z,15.90
2022-08-07T07:16:49.740Z,16.21
2022-08-07T07:19:56.991Z,16.44
2022-08-07T07:22:35.765Z,16.73
2022-08-07T07:25:13.863Z,16.93
2022-08-07T07:28:02.340Z,17.24
2022-08-07T07:30:38.486Z,17.44
2022-08-07T07:33:08.879Z,17.64
2022-08-07T07:35:43.941Z,17.91
2022-08-07T07:38:30.782Z,18.23
2022-08-07T07:41:02.755Z,18.49
2022-08-07T07:43:48.022Z,18.58
2022-08-07T07:46:38.504Z,18.83
2022-08-07T07:50:35.972Z,19.10
2022-08-07T07:52:01.253Z,19.21
2022-08-07T07:54:31.946Z,19.53
2022-08-07T07:57:01.615Z,19.48
2022-08-07T07:59:52.993Z,19.66
2022-08-07T08:02:22.546Z,19.85
2022-08-07T08:05:02.793Z,20.07
2022-08-07T08:07:35.975Z,20.35
2022-08-07T08:10:10.553Z,20.48
2022-08-07T08:12:52.403Z,20.61
2022-08-07T08:15:29.413Z,20.75
2022-08-07T08:18:17.446Z,21.01
2022-08-07T08:20:48.045Z,21.39
2022-08-07T08:23:38.019Z,21.49
2022-08-07T08:26:26.529Z,21.73
2022-08-07T08:28:55.617Z,22.00
2022-08-07T08:31:58.452Z,22.06
2022-08-07T08:34:26.677Z,22.16
2022-08-07T08:36:58.346Z,22.18
2022-08-07T08:39:39.523Z,22.21
2022-08-07T08:42:40.832Z,22.29
2022-08-07T08:45:41.908Z,22.29
2022-08-07T08:48:28.448Z,22.57
2022-08-07T08:52:13.459Z,23.02
2022-08-07T08:54:26.172Z,22.73
2022-08-07T08:56:54.639Z,22.93
2022-08-07T08:59:42.086Z,22.82
2022-08-07T09:02:35.254Z,22.46
2022-08-07T09:05:36.942Z,22.77
2022-08-07T09:08:24.387Z,22.86
2022-08-07T09:11:24.771Z,22.98
2022-08-07T09:14:17.841Z,23.04
2022-08-07T09:16:47.517Z,23.39
2022-08-07T09:19:51.219Z,23.66
2022-08-07T09:24:32.666Z,23.56
2022-08-07T09:25:35.313Z,23.79
2022-08-07T09:29:22.276Z,23.51
2022-08-07T09:31:38.250Z,22.89
2022-08-07T09:34:17.988Z,22.43
2022-08-07T09:37:11.553Z,22.65
2022-08-07T09:39:54.696Z,23.03
2022-08-07T09:42:41.048Z,23.30
2022-08-07T09:47:25.246Z,23.01
2022-08-07T09:48:56.162Z,23.15
2022-08-07T09:52:10.451Z,23.33
2022-08-07T09:54:57.898Z,23.26
2022-08-07T09:58:02.484Z,23.36
2022-08-07T10:00:51.239Z,23.43
2022-08-07T10:04:05.050Z,23.89
2022-08-07T10:06:55.512Z,24.13
2022-08-07T10:10:00.239Z,24.18
2022-08-07T10:12:39.726Z,24.49
2022-08-07T10:15:24.588Z,24.81
2022-08-07T10:18:26.288Z,24.76
2022-08-07T10:21:19.878Z,25.12
2022-08-07T10:24:27.990Z,25.17
2022-08-07T10:27:20.362Z,25.25
2022-08-07T10:30:12.269Z,25.29
2022-08-07T10:32:59.741Z,25.28
2022-08-07T10:35:56.601Z,25.27
2022-08-07T10:38:49.055Z,24.88
2022-08-07T10:41:54.686Z,24.87
2022-08-07T10:44:28.451Z,24.68
2022-08-07T10:47:16.669Z,24.81
2022-08-07T10:50:20.288Z,24.49
2022-08-07T10:53:21.498Z,24.67
2022-08-07T10:56:20.872Z,24.79
2022-08-07T10:59:30.216Z,24.71
2022-08-07T11:02:32.795Z,24.84
2022-08-07T11:05:12.837Z,24.86
2022-08-07T11:07:59.208Z,24.89
2022-08-07T11:11:00.016Z,25.13
2022-08-07T11:14:43.555Z,25.14
2022-08-07T11:16:38.849Z,25.11
2022-08-07T11:19:13.938Z,25.04
2022-08-07T11:22:19.195Z,25.06
2022-08-07T11:25:14.999Z,25.29
2022-08-07T11:28:01.205Z,25.20
2022-08-07T11:30:41.816Z,25.15
2022-08-07T11:33:59.082Z,25.29
2022-08-07T11:36:49.561Z,25.00
2022-08-07T11:39:59.141Z,25.10
2022-08-07T11:43:15.604Z,25.23
2022-08-07T11:46:10.323Z,24.99
2022-08-07T11:49:50.885Z,24.94
2022-08-07T11:52:35.656Z,25.12
2022-08-07T11:56:25.212Z,25.14
2022-08-07T11:58:50.037Z,24.92
2022-08-07T12:01:59.230Z,25.03
2022-08-07T12:04:53.794Z,24.86
2022-08-07T12:07:27.927Z,24.47
2022-08-07T12:10:13.847Z,24.42
2022-08-07T12:12:47.861Z,24.62
2022-08-07T12:15:35.627Z,24.56
2022-08-07T12:18:22.020Z,24.52
2022-08-07T12:20:57.416Z,24.52
2022-08-07T12:24:07.345Z,24.53
2022-08-07T12:27:13.206Z,24.64
2022-08-07T12:29:57.174Z,24.66
2022-08-07T12:32:38.633Z,24.79
2022-08-07T12:35:10.108Z,24.86
2022-08-07T12:38:09.293Z,24.87
2022-08-07T12:40:48.820Z,24.91
2022-08-07T12:44:02.511Z,24.87
2022-08-07T12:46:32.351Z,24.59
2022-08-07T12:49:10.115Z,24.77
2022-08-07T12:52:12.327Z,24.80
2022-08-07T12:55:01.540Z,24.80
2022-08-07T12:57:38.946Z,24.68
2022-08-07T13:00:34.693Z,24.63
2022-08-07T13:03:54.745Z,24.43
2022-08-07T13:07:00.394Z,24.40
2022-08-07T13:10:18.882Z,24.28
2022-08-07T13:12:38.697Z,24.18
2022-08-07T13:15:36.885Z,24.17
2022-08-07T13:18:34.145Z,24.18
2022-08-07T13:21:37.304Z,24.17
2022-08-07T13:24:30.696Z,24.14
2022-08-07T13:27:21.184Z,24.09
2022-08-07T13:30:19.544Z,24.00
2022-08-07T13:34:30.162Z,23.88
2022-08-07T13:36:19.142Z,23.89
2022-08-07T13:39:13.020Z,23.68
2022-08-07T13:41:57.162Z,23.77
2022-08-07T13:44:34.651Z,23.71
2022-08-07T13:47:09.232Z,23.80
2022-08-07T13:50:34.377Z,23.89
2022-08-07T13:52:39.527Z,23.93
2022-08-07T13:55:26.411Z,23.92
2022-08-07T13:58:31.682Z,23.86
2022-08-07T14:00:59.825Z,23.79
2022-08-07T14:04:07.006Z,23.62
2022-08-07T14:06:37.058Z,23.52
2022-08-07T14:09:07.516Z,23.45
2022-08-07T14:11:53.717Z,23.28
2022-08-07T14:14:56.316Z,23.32
2022-08-07T14:17:51.505Z,23.32
2022-08-07T14:20:43.383Z,23.26
2022-08-07T14:23:14.436Z,23.23
2022-08-07T14:26:05.698Z,23.23
2022-08-07T14:28:57.662Z,23.30
2022-08-07T14:31:25.405Z,23.43
2022-08-07T14:34:20.351Z,23.61
2022-08-07T14:36:55.867Z,23.64
2022-08-07T14:40:18.192Z,23.70
2022-08-07T14:42:20.228Z,23.75
2022-08-07T14:44:53.550Z,23.89
2022-08-07T14:47:23.197Z,24.01
2022-08-07T14:52:40.745Z,24.05
2022-08-07T14:55:12.179Z,24.04
2022-08-07T14:57:58.456Z,23.98
2022-08-07T15:00:31.579Z,23.97
2022-08-07T15:03:19.609Z,23.97
2022-08-07T15:05:54.289Z,23.98
2022-08-07T15:08:33.785Z,24.01
2022-08-07T15:11:06.143Z,24.11
2022-08-07T15:13:37.853Z,24.25
2022-08-07T15:16:11.471Z,24.42
2022-08-07T15:18:48.599Z,24.38
2022-08-07T15:21:44.174Z,24.43
2022-08-07T15:27:15.401Z,24.45
2022-08-07T15:30:08.903Z,24.51
2022-08-07T15:32:39.570Z,24.47
2022-08-07T15:35:12.282Z,24.53
2022-08-07T15:38:18.212Z,24.55
2022-08-07T15:40:34.585Z,24.42
2022-08-07T15:43:52.927Z,24.42
2022-08-07T15:46:31.804Z,24.43
2022-08-07T15:49:15.255Z,24.44
2022-08-07T15:54:34.236Z,24.24
2022-08-07T15:57:02.784Z,24.35
2022-08-07T15:59:39.722Z,24.47
2022-08-07T16:02:23.507Z,24.51
2022-08-07T16:04:57.627Z,24.44
2022-08-07T16:08:31.646Z,24.38
2022-08-07T16:10:22.806Z,24.38
2022-08-07T16:13:57.824Z,24.40
2022-08-07T16:16:48.250Z,24.44
2022-08-07T16:20:05.705Z,24.40
2022-08-07T16:22:54.434Z,24.42
2022-08-07T16:25:59.560Z,24.38
2022-08-07T16:29:18.898Z,24.40
2022-08-07T16:31:51.956Z,24.40
2022-08-07T16:34:45.359Z,24.34
2022-08-07T16:38:03.601Z,24.21
2022-08-07T16:41:02.275Z,24.30
2022-08-07T16:44:31.812Z,24.24
2022-08-07T16:47:56.959Z,24.15
2022-08-07T16:51:21.035Z,24.11
2022-08-07T16:54:01.270Z,24.03
2022-08-07T16:56:48.871Z,23.88
2022-08-07T16:59:48.984Z,23.87
2022-08-07T17:02:55.364Z,23.76
2022-08-07T17:06:19.789Z,23.79
2022-08-07T17:09:08.714Z,23.78
2022-08-07T17:12:04.999Z,23.74
2022-08-07T17:14:42.684Z,23.71
2022-08-07T17:17:28.118Z,23.67
2022-08-07T17:20:41.898Z,23.63
2022-08-07T17:23:19.243Z,23.62
2022-08-07T17:25:53.567Z,23.63
2022-08-07T17:28:35.193Z,23.56
2022-08-07T17:31:20.905Z,23.55
2022-08-07T17:34:15.570Z,23.51
2022-08-07T17:37:08.843Z,23.50
2022-08-07T17:39:58.892Z,23.49
2022-08-07T17:42:58.431Z,23.48
2022-08-07T17:45:35.006Z,23.48
2022-08-07T17:48:10.264Z,23.46
2022-08-07T17:51:01.549Z,23.46
2022-08-07T17:54:00.374Z,23.39
2022-08-07T17:56:29.806Z,23.30
2022-08-07T17:58:57.062Z,23.22
2022-08-07T18:01:39.181Z,23.21
2022-08-07T18:04:34.441Z,23.15
2022-08-07T18:07:20.351Z,23.13
2022-08-07T18:10:28.590Z,23.03
2022-08-07T18:13:00.410Z,22.96
2022-08-07T18:15:40.204Z,22.92
2022-08-07T18:18:44.694Z,22.86
2022-08-07T18:21:42.332Z,22.82
2022-08-07T18:24:07.294Z,22.76
2022-08-07T18:26:42.396Z,22.71
2022-08-07T18:30:07.918Z,22.64
2022-08-07T18:32:51.420Z,22.58
2022-08-07T18:35:51.754Z,22.51
2022-08-07T18:38:58.724Z,22.42
2022-08-07T18:41:55.249Z,22.34
2022-08-07T18:44:22.317Z,22.27
2022-08-07T18:47:07.722Z,22.23
2022-08-07T18:50:38.449Z,22.14
2022-08-07T18:53:39.731Z,22.03
2022-08-07T18:56:34.922Z,21.92
2022-08-07T18:59:47.754Z,21.85
2022-08-07T19:02:42.151Z,21.73
2022-08-07T19:06:02.837Z,21.64
2022-08-07T19:08:37.813Z,21.53
2022-08-07T19:11:15.480Z,21.44
2022-08-07T19:14:30.048Z,21.36
2022-08-07T19:17:07.859Z,21.30
2022-08-07T19:19:54.609Z,21.21
2022-08-07T19:22:45.038Z,21.12
2022-08-07T19:26:22.026Z,21.00
2022-08-07T19:28:57.107Z,20.92
2022-08-07T19:31:41.881Z,20.82
2022-08-07T19:33:59.522Z,20.75
2022-08-07T19:36:30.420Z,20.67
2022-08-07T19:39:01.623Z,20.55
2022-08-07T19:41:44.623Z,20.44
2022-08-07T19:44:37.573Z,20.32
2022-08-07T19:47:11.822Z,20.24
2022-08-07T19:49:56.475Z,20.19
2022-08-07T19:52:27.735Z,20.15
2022-08-07T19:54:57.288Z,20.05
2022-08-07T19:58:04.557Z,19.96
2022-08-07T20:00:28.141Z,19.92
2022-08-07T20:03:01.797Z,19.85
2022-08-07T20:06:00.880Z,19.82
2022-08-07T20:08:27.641Z,19.71
2022-08-07T20:11:01.964Z,19.62
2022-08-07T20:13:37.027Z,19.51
2022-08-07T20:16:22.400Z,19.44
2022-08-07T20:19:04.366Z,19.35
2022-08-07T20:21:41.641Z,19.29
2022-08-07T20:24:19.166Z,19.22
2022-08-07T20:26:52.274Z,19.15
2022-08-07T20:29:49.186Z,19.08
2022-08-07T20:32:22.747Z,18.97
2022-08-07T20:34:55.969Z,18.88
2022-08-07T20:37:37.181Z,18.80
2022-08-07T20:40:33.454Z,18.74
2022-08-07T20:43:03.454Z,18.66
2022-08-07T20:46:26.827Z,18.61
2022-08-07T20:48:30.754Z,18.54
2022-08-07T20:51:09.736Z,18.48
2022-08-07T20:54:03.434Z,18.42
2022-08-07T20:56:29.123Z,18.37
2022-08-07T20:59:01.283Z,18.30
2022-08-07T21:01:45.842Z,18.24
2022-08-07T21:04:22.422Z,18.20
2022-08-07T21:06:55.298Z,18.14
2022-08-07T21:09:30.149Z,18.08
2022-08-07T21:12:28.429Z,18.03
2022-08-07T21:14:58.477Z,17.96
2022-08-07T21:18:20.584Z,17.91
2022-08-07T21:20:30.240Z,17.83
2022-08-07T21:23:08.170Z,17.76
2022-08-07T21:26:13.910Z,17.69
2022-08-07T21:28:51.786Z,17.59
2022-08-07T21:31:49.889Z,17.51
2022-08-07T21:34:35.581Z,17.46
2022-08-07T21:37:21.687Z,17.43
2022-08-07T21:39:59.560Z,17.35
2022-08-07T21:42:48.384Z,17.31
2022-08-07T21:46:08.049Z,17.24
2022-08-07T21:48:55.821Z,17.16
2022-08-07T21:51:27.290Z,17.10
2022-08-07T21:54:21.890Z,17.02
2022-08-07T21:57:00.142Z,16.95
2022-08-07T22:00:02.655Z,16.89
2022-08-07T22:02:27.181Z,16.84
2022-08-07T22:04:58.339Z,16.78
2022-08-07T22:07:57.781Z,16.69
2022-08-07T22:10:24.615Z,16.63
2022-08-07T22:12:59.682Z,16.60
2022-08-07T22:16:42.199Z,16.54
2022-08-07T22:18:44.795Z,16.48
2022-08-07T22:21:20.487Z,16.45
2022-08-07T22:23:57.232Z,16.40
2022-08-07T22:26:44.302Z,16.45
2022-08-07T22:29:37.726Z,16.31
2022-08-07T22:32:37.447Z,16.25
2022-08-07T22:35:11.250Z,16.12
2022-08-07T22:38:03.063Z,16.09
2022-08-07T22:40:56.775Z,16.06
2022-08-07T22:43:39.508Z,16.03
2022-08-07T22:46:42.763Z,15.99
2022-08-07T22:49:15.861Z,15.94
2022-08-07T22:52:07.943Z,15.88
2022-08-07T22:54:51.309Z,15.85
2022-08-07T22:57:44.954Z,15.83
2022-08-07T23:00:28.559Z,15.76
2022-08-07T23:03:29.685Z,15.63
2022-08-07T23:06:44.170Z,15.50
2022-08-07T23:10:04.904Z,15.47
2022-08-07T23:12:52.785Z,15.43
2022-08-07T23:16:07.027Z,15.37
2022-08-07T23:18:20.877Z,15.32
2022-08-07T23:20:58.857Z,15.18
2022-08-07T23:24:05.394Z,15.07
2022-08-07T23:26:56.312Z,14.98
2022-08-07T23:29:43.877Z,14.93
2022-08-07T23:34:23.185Z,14.83
2022-08-07T23:36:08.196Z,14.85
2022-08-07T23:38:45.797Z,14.80
2022-08-07T23:41:47.717Z,14.75
2022-08-07T23:44:41.141Z,14.68
2022-08-07T23:47:20.482Z,14.58
2022-08-07T23:50:18.050Z,14.54
2022-08-07T23:53:01.105Z,14.45
2022-08-07T23:56:02.523Z,14.38
2022-08-07T23:58:42.303Z,14.35
